Chappell Hill, Texas
Current Conditions -  °F | °C
As of 10:55 AM on Friday 28 Nov 2014 (Local Time) from K11R Reporting Station
Broken Clouds Broken Clouds  
Wind Chill: 65°   Ceiling: 2500
Heat Index: 65°   Visibility: 10mi
Dew Point: 51°   Wind: 7mph
Humidity: 61%   Direction: 150°SSE
Pressure: 30.31"   Gusts: NA
Location:  30.14°N, 96.26°W
Report Text: K11R 281655Z AUTO 15006KT 10SM BKN025 18/11 A3031 RMK AO2 T01810105
Loading
Personal Weather Stations






























Interactive Weather Map New forecast layout! Learn more

10-Day Weather Forecast

Advertisements
Track Severe Weather on mobile